sensor_id;sensor_type;location;lat;lon;timestamp;temperature;humidity
14775;DHT22;7479;47.042;15.160;2023-06-26T05:00:46;17.30;99.90
14775;DHT22;7479;47.042;15.160;2023-06-26T05:10:32;17.70;99.90
14775;DHT22;7479;47.042;15.160;2023-06-26T05:47:12;19.50;99.90
14775;DHT22;7479;47.042;15.160;2023-06-26T05:52:06;19.60;99.90
14775;DHT22;7479;47.042;15.160;2023-06-26T09:02:54;26.70;97.20
14775;DHT22;7479;47.042;15.160;2023-06-26T09:07:48;26.80;96.60
14775;DHT22;7479;47.042;15.160;2023-06-26T09:12:46;26.80;96.50
14775;DHT22;7479;47.042;15.160;2023-06-26T09:17:40;27.10;96.70
14775;DHT22;7479;47.042;15.160;2023-06-26T09:22:37;27.50;95.20
14775;DHT22;7479;47.042;15.160;2023-06-26T09:27:31;27.70;93.70
14775;DHT22;7479;47.042;15.160;2023-06-26T09:32:24;28.00;93.20
14775;DHT22;7479;47.042;15.160;2023-06-26T09:37:19;28.20;92.00
14775;DHT22;7479;47.042;15.160;2023-06-26T09:42:15;28.40;92.40
14775;DHT22;7479;47.042;15.160;2023-06-26T09:47:09;28.60;91.10
14775;DHT22;7479;47.042;15.160;2023-06-26T09:52:03;28.70;91.10
14775;DHT22;7479;47.042;15.160;2023-06-26T09:56:57;29.00;89.20
14775;DHT22;7479;47.042;15.160;2023-06-26T10:02:01;29.30;89.00
14775;DHT22;7479;47.042;15.160;2023-06-26T10:06:56;29.60;87.60
14775;DHT22;7479;47.042;15.160;2023-06-26T10:11:55;29.70;85.60
14775;DHT22;7479;47.042;15.160;2023-06-26T10:16:49;29.90;86.80
14775;DHT22;7479;47.042;15.160;2023-06-26T10:21:45;30.10;85.80
14775;DHT22;7479;47.042;15.160;2023-06-26T10:26:43;30.30;84.20
14775;DHT22;7479;47.042;15.160;2023-06-26T10:31:39;30.20;78.90
14775;DHT22;7479;47.042;15.160;2023-06-26T10:36:35;30.60;81.40
14775;DHT22;7479;47.042;15.160;2023-06-26T10:41:36;30.80;80.00
14775;DHT22;7479;47.042;15.160;2023-06-26T10:46:51;31.30;76.00
14775;DHT22;7479;47.042;15.160;2023-06-26T10:51:49;31.20;75.60
14775;DHT22;7479;47.042;15.160;2023-06-26T10:56:44;31.50;75.00
14775;DHT22;7479;47.042;15.160;2023-06-26T11:01:40;31.70;72.90
14775;DHT22;7479;47.042;15.160;2023-06-26T11:06:36;32.00;75.20
14775;DHT22;7479;47.042;15.160;2023-06-26T11:11:59;32.20;73.40
14775;DHT22;7479;47.042;15.160;2023-06-26T11:16:57;32.40;71.60
14775;DHT22;7479;47.042;15.160;2023-06-26T11:21:51;32.20;71.10
14775;DHT22;7479;47.042;15.160;2023-06-26T11:26:45;32.50;69.70
14775;DHT22;7479;47.042;15.160;2023-06-26T11:31:41;32.50;67.60
14775;DHT22;7479;47.042;15.160;2023-06-26T11:36:35;32.80;69.70
14775;DHT22;7479;47.042;15.160;2023-06-26T11:41:30;33.00;67.20
14775;DHT22;7479;47.042;15.160;2023-06-26T11:46:24;32.70;68.60
14775;DHT22;7479;47.042;15.160;2023-06-26T11:51:19;33.40;65.90
14775;DHT22;7479;47.042;15.160;2023-06-26T11:56:13;34.00;62.90
14775;DHT22;7479;47.042;15.160;2023-06-26T12:01:07;34.40;60.60
14775;DHT22;7479;47.042;15.160;2023-06-26T12:06:01;33.90;58.00
14775;DHT22;7479;47.042;15.160;2023-06-26T12:10:59;34.20;59.80
14775;DHT22;7479;47.042;15.160;2023-06-26T12:15:52;34.60;59.30
14775;DHT22;7479;47.042;15.160;2023-06-26T12:20:46;35.00;60.50
14775;DHT22;7479;47.042;15.160;2023-06-26T12:25:39;34.90;59.50
14775;DHT22;7479;47.042;15.160;2023-06-26T12:30:34;35.00;57.80
14775;DHT22;7479;47.042;15.160;2023-06-26T12:35:28;34.80;57.20
14775;DHT22;7479;47.042;15.160;2023-06-26T12:40:21;35.10;57.70
14775;DHT22;7479;47.042;15.160;2023-06-26T12:45:15;35.10;56.50
14775;DHT22;7479;47.042;15.160;2023-06-26T12:50:13;35.30;56.90
14775;DHT22;7479;47.042;15.160;2023-06-26T12:55:07;35.50;55.20
14775;DHT22;7479;47.042;15.160;2023-06-26T13:00:00;35.50;55.10
14775;DHT22;7479;47.042;15.160;2023-06-26T13:04:55;35.80;54.00
14775;DHT22;7479;47.042;15.160;2023-06-26T13:09:49;35.60;55.00
14775;DHT22;7479;47.042;15.160;2023-06-26T13:14:43;36.00;54.80
14775;DHT22;7479;47.042;15.160;2023-06-26T13:19:36;35.70;52.50
14775;DHT22;7479;47.042;15.160;2023-06-26T13:24:30;35.60;54.20
14775;DHT22;7479;47.042;15.160;2023-06-26T13:29:25;36.00;55.80
14775;DHT22;7479;47.042;15.160;2023-06-26T13:34:22;36.20;54.30
14775;DHT22;7479;47.042;15.160;2023-06-26T13:39:16;36.40;53.70
14775;DHT22;7479;47.042;15.160;2023-06-26T13:44:09;36.20;54.60
14775;DHT22;7479;47.042;15.160;2023-06-26T13:49:24;36.20;55.10
14775;DHT22;7479;47.042;15.160;2023-06-26T13:54:17;35.90;56.20
14775;DHT22;7479;47.042;15.160;2023-06-26T13:59:11;35.90;56.00
14775;DHT22;7479;47.042;15.160;2023-06-26T14:04:04;36.00;55.30
14775;DHT22;7479;47.042;15.160;2023-06-26T14:08:59;36.20;55.00
14775;DHT22;7479;47.042;15.160;2023-06-26T14:13:52;36.50;53.60
14775;DHT22;7479;47.042;15.160;2023-06-26T14:18:46;36.70;51.80
14775;DHT22;7479;47.042;15.160;2023-06-26T14:23:39;36.20;54.00
14775;DHT22;7479;47.042;15.160;2023-06-26T14:28:34;36.30;55.80
14775;DHT22;7479;47.042;15.160;2023-06-26T14:33:28;36.30;55.10
14775;DHT22;7479;47.042;15.160;2023-06-26T14:38:21;36.40;54.80
14775;DHT22;7479;47.042;15.160;2023-06-26T14:43:14;36.40;55.20
14775;DHT22;7479;47.042;15.160;2023-06-26T14:48:10;36.50;53.70
14775;DHT22;7479;47.042;15.160;2023-06-26T14:53:04;36.60;54.50
14775;DHT22;7479;47.042;15.160;2023-06-26T14:57:57;36.30;55.90
14775;DHT22;7479;47.042;15.160;2023-06-26T15:02:51;36.10;55.40
14775;DHT22;7479;47.042;15.160;2023-06-26T15:07:51;36.10;54.60
14775;DHT22;7479;47.042;15.160;2023-06-26T15:12:44;36.00;54.60
14775;DHT22;7479;47.042;15.160;2023-06-26T15:17:37;36.20;54.20
14775;DHT22;7479;47.042;15.160;2023-06-26T15:22:31;36.30;54.40
14775;DHT22;7479;47.042;15.160;2023-06-26T15:27:26;36.40;54.10
14775;DHT22;7479;47.042;15.160;2023-06-26T15:32:19;36.20;55.30
14775;DHT22;7479;47.042;15.160;2023-06-26T15:37:13;36.10;54.30
14775;DHT22;7479;47.042;15.160;2023-06-26T15:42:06;35.70;54.80
14775;DHT22;7479;47.042;15.160;2023-06-26T15:47:01;35.60;55.40
14775;DHT22;7479;47.042;15.160;2023-06-26T15:51:55;35.50;54.50
14775;DHT22;7479;47.042;15.160;2023-06-26T15:56:48;35.50;55.80
14775;DHT22;7479;47.042;15.160;2023-06-26T16:01:42;35.60;56.10
14775;DHT22;7479;47.042;15.160;2023-06-26T16:06:39;35.30;55.90
14775;DHT22;7479;47.042;15.160;2023-06-26T16:11:32;35.10;56.60
14775;DHT22;7479;47.042;15.160;2023-06-26T16:16:26;35.10;56.60
14775;DHT22;7479;47.042;15.160;2023-06-26T16:21:19;35.10;56.60
14775;DHT22;7479;47.042;15.160;2023-06-26T16:26:14;35.00;57.00
14775;DHT22;7479;47.042;15.160;2023-06-26T16:31:07;34.90;57.10
14775;DHT22;7479;47.042;15.160;2023-06-26T16:36:01;34.80;58.00
14775;DHT22;7479;47.042;15.160;2023-06-26T16:40:54;34.70;57.60
14775;DHT22;7479;47.042;15.160;2023-06-26T16:45:49;34.50;58.00
14775;DHT22;7479;47.042;15.160;2023-06-26T16:50:42;34.40;58.70
14775;DHT22;7479;47.042;15.160;2023-06-26T16:55:36;34.10;58.70
14775;DHT22;7479;47.042;15.160;2023-06-26T17:00:29;34.00;59.00
14775;DHT22;7479;47.042;15.160;2023-06-26T17:05:24;33.80;59.70
14775;DHT22;7479;47.042;15.160;2023-06-26T17:10:18;33.50;60.50
14775;DHT22;7479;47.042;15.160;2023-06-26T17:15:11;33.30;60.80
14775;DHT22;7479;47.042;15.160;2023-06-26T17:20:06;33.00;62.30
14775;DHT22;7479;47.042;15.160;2023-06-26T17:25:03;33.10;63.00
14775;DHT22;7479;47.042;15.160;2023-06-26T17:29:57;32.80;62.70
14775;DHT22;7479;47.042;15.160;2023-06-26T17:34:51;32.60;61.90
14775;DHT22;7479;47.042;15.160;2023-06-26T17:39:44;35.00;60.00
14775;DHT22;7479;47.042;15.160;2023-06-26T17:44:39;37.20;55.80
14775;DHT22;7479;47.042;15.160;2023-06-26T17:49:32;37.80;54.50
14775;DHT22;7479;47.042;15.160;2023-06-26T17:54:26;37.40;55.00
14775;DHT22;7479;47.042;15.160;2023-06-26T17:59:19;35.30;57.70
14775;DHT22;7479;47.042;15.160;2023-06-26T18:04:14;33.30;60.90
14775;DHT22;7479;47.042;15.160;2023-06-26T18:09:08;32.20;64.10
14775;DHT22;7479;47.042;15.160;2023-06-26T18:14:02;31.30;66.90
14775;DHT22;7479;47.042;15.160;2023-06-26T18:18:56;30.50;68.80
14775;DHT22;7479;47.042;15.160;2023-06-26T18:23:54;29.80;70.70
14775;DHT22;7479;47.042;15.160;2023-06-26T18:28:48;29.30;72.50
14775;DHT22;7479;47.042;15.160;2023-06-26T18:33:42;28.90;74.30
14775;DHT22;7479;47.042;15.160;2023-06-26T18:38:35;28.90;74.90
14775;DHT22;7479;47.042;15.160;2023-06-26T18:43:30;28.40;76.60
14775;DHT22;7479;47.042;15.160;2023-06-26T18:48:24;28.20;78.40
14775;DHT22;7479;47.042;15.160;2023-06-26T18:53:17;27.90;79.70
14775;DHT22;7479;47.042;15.160;2023-06-26T18:58:11;27.60;80.60
14775;DHT22;7479;47.042;15.160;2023-06-26T19:03:05;27.40;81.80
14775;DHT22;7479;47.042;15.160;2023-06-26T19:07:59;27.10;83.90
14775;DHT22;7479;47.042;15.160;2023-06-26T19:12:52;26.60;86.10
14775;DHT22;7479;47.042;15.160;2023-06-26T19:17:48;26.40;88.50
14775;DHT22;7479;47.042;15.160;2023-06-26T19:22:43;26.10;90.70
14775;DHT22;7479;47.042;15.160;2023-06-26T19:27:38;25.90;91.40
14775;DHT22;7479;47.042;15.160;2023-06-26T19:32:32;25.70;91.60
14775;DHT22;7479;47.042;15.160;2023-06-26T19:37:26;25.50;91.80
14775;DHT22;7479;47.042;15.160;2023-06-26T19:42:20;25.40;92.40
14775;DHT22;7479;47.042;15.160;2023-06-26T19:47:13;25.20;92.30
14775;DHT22;7479;47.042;15.160;2023-06-26T19:52:07;25.10;92.80
14775;DHT22;7479;47.042;15.160;2023-06-26T19:57:01;25.00;93.30
14775;DHT22;7479;47.042;15.160;2023-06-26T20:01:55;24.70;94.10
14775;DHT22;7479;47.042;15.160;2023-06-26T20:06:49;24.50;94.90
14775;DHT22;7479;47.042;15.160;2023-06-26T20:11:42;24.40;95.70
14775;DHT22;7479;47.042;15.160;2023-06-26T20:16:36;24.30;96.40
14775;DHT22;7479;47.042;15.160;2023-06-26T20:21:31;24.20;97.00
14775;DHT22;7479;47.042;15.160;2023-06-26T20:26:24;24.10;97.70
14775;DHT22;7479;47.042;15.160;2023-06-26T20:31:18;23.90;98.10
14775;DHT22;7479;47.042;15.160;2023-06-26T20:36:11;23.80;98.90
14775;DHT22;7479;47.042;15.160;2023-06-26T20:41:07;23.70;99.50
14775;DHT22;7479;47.042;15.160;2023-06-26T20:46:01;23.40;99.90
14775;DHT22;7479;47.042;15.160;2023-06-26T20:50:55;23.10;99.90
14775;DHT22;7479;47.042;15.160;2023-06-26T20:55:51;22.90;99.90
14775;DHT22;7479;47.042;15.160;2023-06-26T21:00:46;22.90;99.90
14775;DHT22;7479;47.042;15.160;2023-06-26T21:05:40;22.80;99.90
14775;DHT22;7479;47.042;15.160;2023-06-26T21:10:33;22.80;99.90
14775;DHT22;7479;47.042;15.160;2023-06-26T21:15:27;22.70;99.90
14775;DHT22;7479;47.042;15.160;2023-06-26T21:20:22;22.60;99.90
14775;DHT22;7479;47.042;15.160;2023-06-26T21:25:15;22.40;99.90
14775;DHT22;7479;47.042;15.160;2023-06-26T21:30:09;22.30;99.90
14775;DHT22;7479;47.042;15.160;2023-06-26T21:35:04;22.20;99.90
14775;DHT22;7479;47.042;15.160;2023-06-26T21:39:59;22.10;99.90
14775;DHT22;7479;47.042;15.160;2023-06-26T21:44:52;22.00;99.90
14775;DHT22;7479;47.042;15.160;2023-06-26T21:49:46;21.90;99.90
14775;DHT22;7479;47.042;15.160;2023-06-26T21:54:39;21.90;99.90
